createdAt,value
2022-09-18T00:01:58.784Z,94763.97
2022-09-18T00:04:44.673Z,94752.88
2022-09-18T00:07:30.583Z,94761.41
2022-09-18T00:10:16.545Z,94747.66
2022-09-18T00:13:02.555Z,94746.41
2022-09-18T00:15:55.381Z,94744.66
2022-09-18T00:18:42.346Z,94732.91
2022-09-18T00:21:29.774Z,94723.44
2022-09-18T00:24:20.422Z,94724.09
2022-09-18T00:27:06.310Z,94770.91
2022-09-18T00:29:52.089Z,94760.75
2022-09-18T00:32:38.278Z,94766.03
2022-09-18T00:35:24.543Z,94784.66
2022-09-18T00:38:10.726Z,94784.53
2022-09-18T00:41:00.367Z,94792.25
2022-09-18T00:43:46.138Z,94795.28
2022-09-18T00:46:34.346Z,94810.84
2022-09-18T00:49:23.910Z,94798.28
2022-09-18T00:52:11.365Z,94815.31
2022-09-18T00:55:01.404Z,94797.22
2022-09-18T00:57:54.428Z,94816.63
2022-09-18T01:00:43.796Z,94808.06
2022-09-18T01:03:30.086Z,94814.25
2022-09-18T01:06:23.529Z,94816.56
2022-09-18T01:09:51.845Z,94821.13
2022-09-18T01:12:51.095Z,94813.66
2022-09-18T01:16:02.671Z,94820.25
2022-09-18T01:19:19.454Z,94817.53
2022-09-18T01:22:15.032Z,94826.84
2022-09-18T01:25:23.528Z,94841.19
2022-09-18T01:28:18.376Z,94841.19
2022-09-18T01:31:14.897Z,94843.47
2022-09-18T01:34:11.106Z,94845.75
2022-09-18T01:37:11.988Z,94855.03
2022-09-18T01:40:53.257Z,94872.06
2022-09-18T01:43:39.880Z,94863.16
2022-09-18T01:46:26.236Z,94878.75
2022-09-18T01:49:14.887Z,94870.94
2022-09-18T01:52:37.331Z,94878.03
2022-09-18T01:55:26.685Z,94899.03
2022-09-18T01:58:19.046Z,94899.47
2022-09-18T02:01:13.193Z,94882.25
2022-09-18T02:04:15.253Z,94901.75
2022-09-18T02:07:16.177Z,94904.03
2022-09-18T02:10:03.774Z,94913.78
2022-09-18T02:12:51.118Z,94925.56
2022-09-18T02:15:38.810Z,94902.47
2022-09-18T02:18:34.706Z,94935.31
2022-09-18T02:21:28.094Z,94938.03
2022-09-18T02:24:16.363Z,94941.47
2022-09-18T02:27:03.703Z,94949.34
2022-09-18T02:29:49.503Z,94942.34
2022-09-18T02:32:37.472Z,94947.00
2022-09-18T02:35:27.483Z,94957.16
2022-09-18T02:38:30.982Z,94961.41
2022-09-18T02:41:20.190Z,94960.69
2022-09-18T02:44:20.852Z,94949.34
2022-09-18T02:47:09.900Z,94968.84
2022-09-18T02:50:37.206Z,94964.38
2022-09-18T02:53:46.738Z,94971.75
2022-09-18T02:56:47.280Z,94981.94
2022-09-18T02:59:40.943Z,94983.44
2022-09-18T03:02:29.977Z,94981.16
2022-09-18T03:05:15.863Z,94972.53
2022-09-18T03:08:11.835Z,94985.00
2022-09-18T03:10:57.830Z,94978.09
2022-09-18T03:13:45.875Z,94997.94
2022-09-18T03:16:31.657Z,94988.19
2022-09-18T03:19:17.896Z,94986.94
2022-09-18T03:22:03.852Z,95011.56
2022-09-18T03:24:53.422Z,95011.44
2022-09-18T03:27:39.864Z,95014.50
2022-09-18T03:30:27.068Z,95019.38
2022-09-18T03:33:13.805Z,95023.31
2022-09-18T03:36:02.560Z,95021.31
2022-09-18T03:38:48.907Z,95016.28
2022-09-18T03:41:35.673Z,95028.69
2022-09-18T03:44:25.371Z,95026.31
2022-09-18T03:47:11.776Z,95020.22
2022-09-18T03:49:58.201Z,95033.34
2022-09-18T03:52:47.761Z,95033.34
2022-09-18T03:55:55.805Z,95025.41
2022-09-18T03:59:00.205Z,95018.47
2022-09-18T04:02:20.690Z,95029.38
2022-09-18T04:05:07.007Z,95054.38
2022-09-18T04:08:30.619Z,95062.72
2022-09-18T04:11:45.051Z,95061.25
2022-09-18T04:14:31.231Z,95063.50
2022-09-18T04:17:18.093Z,95070.53
2022-09-18T04:20:05.139Z,95069.41
2022-09-18T04:22:51.372Z,95080.28
2022-09-18T04:25:43.087Z,95072.81
2022-09-18T04:28:31.304Z,95085.97
2022-09-18T04:31:17.434Z,95082.91
2022-09-18T04:34:03.239Z,95070.34
2022-09-18T04:36:51.311Z,95075.81
2022-09-18T04:39:37.243Z,95081.94
2022-09-18T04:42:23.241Z,95099.50
2022-09-18T04:45:13.704Z,95113.91
2022-09-18T04:47:59.947Z,95100.34
2022-09-18T04:50:49.074Z,95121.63
2022-09-18T04:53:38.080Z,95108.97
2022-09-18T04:56:24.969Z,95123.00
2022-09-18T04:59:11.639Z,95133.19
2022-09-18T05:02:02.009Z,95137.84
2022-09-18T05:04:47.910Z,95145.66
2022-09-18T05:07:42.256Z,95151.13
2022-09-18T05:10:29.107Z,95152.38
2022-09-18T05:13:15.731Z,95165.63
2022-09-18T05:16:15.941Z,95163.34
2022-09-18T05:19:09.173Z,95159.72
2022-09-18T05:21:55.053Z,95169.03
2022-09-18T05:24:43.083Z,95180.03
2022-09-18T05:27:33.746Z,95183.09
2022-09-18T05:30:20.266Z,95178.44
2022-09-18T05:33:15.801Z,95182.75
2022-09-18T05:36:04.191Z,95181.50
2022-09-18T05:38:51.624Z,95172.88
2022-09-18T05:41:37.893Z,95188.63
2022-09-18T05:44:23.946Z,95195.66
2022-09-18T05:47:11.804Z,95187.84
2022-09-18T05:50:00.346Z,95187.84
2022-09-18T05:52:46.410Z,95194.97
2022-09-18T05:55:34.086Z,95205.06
2022-09-18T05:58:21.071Z,95203.47
2022-09-18T06:01:14.313Z,95210.78
2022-09-18T06:04:22.653Z,95205.66
2022-09-18T06:07:15.666Z,95210.06
2022-09-18T06:10:02.847Z,95205.75
2022-09-18T06:12:49.607Z,95221.53
2022-09-18T06:15:36.210Z,95219.59
2022-09-18T06:18:22.832Z,95217.56
2022-09-18T06:21:14.928Z,95218.47
2022-09-18T06:24:03.014Z,95221.88
2022-09-18T06:27:02.723Z,95224.59
2022-09-18T06:29:48.600Z,95232.41
2022-09-18T06:32:44.519Z,95223.69
2022-09-18T06:35:30.524Z,95240.66
2022-09-18T06:38:17.001Z,95241.38
2022-09-18T06:41:06.793Z,95251.22
2022-09-18T06:44:18.686Z,95258.25
2022-09-18T06:47:13.420Z,95258.16
2022-09-18T06:50:03.816Z,95260.31
2022-09-18T06:52:49.795Z,95271.53
2022-09-18T06:55:35.925Z,95263.47
2022-09-18T06:58:23.098Z,95275.63
2022-09-18T07:01:11.102Z,95274.03
2022-09-18T07:04:03.250Z,95282.75
2022-09-18T07:06:59.327Z,95285.16
2022-09-18T07:09:47.332Z,95261.78
2022-09-18T07:12:41.253Z,95291.50
2022-09-18T07:15:28.213Z,95299.88
2022-09-18T07:18:14.474Z,95288.53
2022-09-18T07:21:00.504Z,95302.59
2022-09-18T07:23:52.706Z,95307.75
2022-09-18T07:26:40.043Z,95302.84
2022-09-18T07:29:27.918Z,95312.25
2022-09-18T07:32:15.759Z,95303.88
2022-09-18T07:35:13.941Z,95320.31
2022-09-18T07:38:22.450Z,95309.66
2022-09-18T07:41:13.975Z,95311.25
2022-09-18T07:44:03.416Z,95326.44
2022-09-18T07:46:51.080Z,95318.94
2022-09-18T07:49:38.926Z,95316.81
2022-09-18T07:52:27.151Z,95323.06
2022-09-18T07:55:15.173Z,95320.53
2022-09-18T07:58:04.435Z,95328.50
2022-09-18T08:01:10.075Z,95327.78
2022-09-18T08:04:12.486Z,95338.84
2022-09-18T08:07:18.596Z,95335.28
2022-09-18T08:10:16.061Z,95333.50
2022-09-18T08:13:34.004Z,95343.81
2022-09-18T08:16:28.495Z,95342.78
2022-09-18T08:19:30.539Z,95356.16
2022-09-18T08:22:40.551Z,95343.91
2022-09-18T08:25:33.236Z,95341.28
2022-09-18T08:28:19.384Z,95349.09
2022-09-18T08:31:11.671Z,95349.41
2022-09-18T08:33:57.912Z,95350.00
2022-09-18T08:36:44.729Z,95349.84
2022-09-18T08:39:59.850Z,95350.03
2022-09-18T08:43:28.782Z,95365.38
2022-09-18T08:46:20.602Z,95359.88
2022-09-18T08:49:28.133Z,95363.25
2022-09-18T08:52:21.087Z,95365.00
2022-09-18T08:55:27.866Z,95359.81
2022-09-18T08:58:51.615Z,95357.03
2022-09-18T09:01:48.169Z,95364.25
2022-09-18T09:04:35.933Z,95372.03
2022-09-18T09:07:43.247Z,95370.25
2022-09-18T09:10:35.998Z,95371.16
2022-09-18T09:14:02.061Z,95367.69
2022-09-18T09:16:52.235Z,95371.78
2022-09-18T09:19:59.042Z,95373.78
2022-09-18T09:23:14.184Z,95378.53
2022-09-18T09:26:12.249Z,95381.44
2022-09-18T09:29:29.140Z,95383.47
2022-09-18T09:32:38.981Z,95390.53
2022-09-18T09:35:49.438Z,95389.81
2022-09-18T09:38:39.927Z,95396.16
2022-09-18T09:41:25.578Z,95401.38
2022-09-18T09:44:28.896Z,95399.44
2022-09-18T09:47:23.672Z,95402.66
2022-09-18T09:50:10.811Z,95404.72
2022-09-18T09:52:59.213Z,95394.94
2022-09-18T09:56:12.398Z,95403.59
2022-09-18T09:59:27.022Z,95405.28
2022-09-18T10:02:55.843Z,95402.19
2022-09-18T10:06:09.853Z,95406.13
2022-09-18T10:09:02.719Z,95401.56
2022-09-18T10:12:17.170Z,95399.19
2022-09-18T10:15:16.919Z,95395.56
2022-09-18T10:18:06.732Z,95400.38
2022-09-18T10:20:56.523Z,95406.03
2022-09-18T10:23:53.115Z,95410.78
2022-09-18T10:26:56.262Z,95410.78
2022-09-18T10:29:43.150Z,95409.63
2022-09-18T10:32:38.719Z,95417.13
2022-09-18T10:35:44.213Z,95423.47
2022-09-18T10:38:34.248Z,95423.53
2022-09-18T10:41:45.058Z,95418.16
2022-09-18T10:44:37.143Z,95417.44
2022-09-18T10:47:46.673Z,95412.69
2022-09-18T10:50:34.583Z,95406.50
2022-09-18T10:53:33.590Z,95428.63
2022-09-18T10:56:28.167Z,95423.94
2022-09-18T10:59:31.950Z,95425.22
2022-09-18T11:02:20.275Z,95427.25
2022-09-18T11:05:23.152Z,95422.94
2022-09-18T11:08:18.033Z,95430.13
2022-09-18T11:11:09.120Z,95423.53
2022-09-18T11:14:08.458Z,95425.00
2022-09-18T11:17:25.531Z,95403.41
2022-09-18T11:20:41.210Z,95413.91
2022-09-18T11:23:39.426Z,95407.94
2022-09-18T11:26:30.695Z,95406.56
2022-09-18T11:29:28.935Z,95411.56
2022-09-18T11:32:15.132Z,95422.78
2022-09-18T11:35:05.664Z,95409.69
2022-09-18T11:38:00.123Z,95395.50
2022-09-18T11:40:51.518Z,95400.31
2022-09-18T11:43:41.336Z,95404.25
2022-09-18T11:46:43.215Z,95406.44
2022-09-18T11:49:34.611Z,95401.00
2022-09-18T11:52:29.214Z,95396.25
2022-09-18T11:55:32.362Z,95401.19
2022-09-18T11:58:48.534Z,95398.47
2022-09-18T12:01:46.424Z,95396.59
2022-09-18T12:04:49.515Z,95395.69
2022-09-18T12:08:06.164Z,95388.88
2022-09-18T12:10:56.393Z,95394.84
2022-09-18T12:13:49.175Z,95392.06
2022-09-18T12:17:17.181Z,95394.78
2022-09-18T12:20:12.733Z,95382.94
2022-09-18T12:23:01.427Z,95383.69
2022-09-18T12:26:12.201Z,95388.72
2022-09-18T12:29:39.461Z,95383.44
2022-09-18T12:33:02.988Z,95385.72
2022-09-18T12:36:36.851Z,95387.94
2022-09-18T12:39:35.294Z,95385.47
2022-09-18T12:42:45.725Z,95384.56
2022-09-18T12:45:51.894Z,95392.34
2022-09-18T12:49:03.179Z,95380.66
2022-09-18T12:52:27.623Z,95369.81
2022-09-18T12:55:37.677Z,95366.22
2022-09-18T12:58:33.410Z,95363.50
2022-09-18T13:01:35.779Z,95356.09
2022-09-18T13:04:31.829Z,95349.78
2022-09-18T13:07:26.749Z,95346.66
2022-09-18T13:10:18.033Z,95335.91
2022-09-18T13:13:25.994Z,95355.47
2022-09-18T13:16:25.499Z,95352.09
2022-09-18T13:19:18.603Z,95359.28
2022-09-18T13:22:10.149Z,95354.59
2022-09-18T13:24:57.778Z,95366.41
2022-09-18T13:27:43.969Z,95359.28
2022-09-18T13:30:31.274Z,95362.38
2022-09-18T13:33:25.499Z,95366.69
2022-09-18T13:36:11.605Z,95368.13
2022-09-18T13:39:02.253Z,95370.03
2022-09-18T13:41:56.888Z,95369.16
2022-09-18T13:44:49.679Z,95357.25
2022-09-18T13:48:14.017Z,95371.28
2022-09-18T13:51:03.607Z,95357.69
2022-09-18T13:54:15.833Z,95363.88
2022-09-18T13:57:05.143Z,95362.19
2022-09-18T13:59:56.247Z,95358.09
2022-09-18T14:02:42.315Z,95357.56
2022-09-18T14:05:28.375Z,95359.44
2022-09-18T14:08:20.014Z,95363.22
2022-09-18T14:11:23.574Z,95365.44
2022-09-18T14:14:12.245Z,95368.47
2022-09-18T14:17:13.758Z,95378.53
2022-09-18T14:20:20.575Z,95381.56
2022-09-18T14:23:35.507Z,95385.41
2022-09-18T14:26:35.129Z,95382.28
2022-09-18T14:29:20.992Z,95386.75
2022-09-18T14:32:17.541Z,95371.63
2022-09-18T14:35:30.171Z,95371.72
2022-09-18T14:38:21.142Z,95374.50
2022-09-18T14:41:19.877Z,95375.72
2022-09-18T14:44:07.179Z,95376.47
2022-09-18T14:46:59.241Z,95368.13
2022-09-18T14:49:44.882Z,95377.88
2022-09-18T14:52:40.571Z,95381.69
2022-09-18T14:55:32.090Z,95381.59
2022-09-18T14:58:21.144Z,95391.31
2022-09-18T15:01:09.891Z,95386.91
2022-09-18T15:03:57.784Z,95378.88
2022-09-18T15:06:45.877Z,95394.47
2022-09-18T15:09:33.626Z,95387.31
2022-09-18T15:12:24.508Z,95388.78
2022-09-18T15:15:30.813Z,95390.19
2022-09-18T15:18:23.599Z,95391.31
2022-09-18T15:21:33.226Z,95392.78
2022-09-18T15:24:19.605Z,95380.44
2022-09-18T15:27:06.998Z,95387.50
2022-09-18T15:30:20.104Z,95384.28
2022-09-18T15:33:08.071Z,95381.03
2022-09-18T15:35:55.474Z,95381.81
2022-09-18T15:38:43.388Z,95385.69
2022-09-18T15:41:43.931Z,95389.44
2022-09-18T15:44:39.374Z,95384.38
2022-09-18T15:47:32.932Z,95387.03
2022-09-18T15:50:34.076Z,95388.19
2022-09-18T15:53:23.640Z,95390.13
2022-09-18T15:56:19.282Z,95390.94
2022-09-18T15:59:07.541Z,95386.88
2022-09-18T16:01:53.241Z,95390.78
2022-09-18T16:04:39.424Z,95383.22
2022-09-18T16:07:26.999Z,95396.13
2022-09-18T16:10:34.824Z,95399.91
2022-09-18T16:13:20.514Z,95401.41
2022-09-18T16:16:22.672Z,95394.94
2022-09-18T16:19:10.584Z,95399.63
2022-09-18T16:21:56.559Z,95397.19
2022-09-18T16:24:42.539Z,95388.47
2022-09-18T16:27:28.606Z,95392.31
2022-09-18T16:30:15.775Z,95393.75
2022-09-18T16:33:07.340Z,95396.00
2022-09-18T16:36:05.343Z,95401.47
2022-09-18T16:38:54.385Z,95399.66
2022-09-18T16:41:43.783Z,95393.41
2022-09-18T16:44:29.866Z,95411.25
2022-09-18T16:47:15.834Z,95417.50
2022-09-18T16:50:01.934Z,95415.78
2022-09-18T16:52:47.888Z,95410.19
2022-09-18T16:55:34.074Z,95411.72
2022-09-18T16:58:20.952Z,95420.19
2022-09-18T17:01:07.542Z,95419.31
2022-09-18T17:03:53.270Z,95429.41
2022-09-18T17:06:39.064Z,95419.09
2022-09-18T17:09:25.010Z,95431.19
2022-09-18T17:12:10.980Z,95442.75
2022-09-18T17:14:56.768Z,95428.13
2022-09-18T17:17:43.620Z,95437.84
2022-09-18T17:20:32.473Z,95445.88
2022-09-18T17:23:18.401Z,95450.47
2022-09-18T17:26:09.437Z,95448.72
2022-09-18T17:28:55.522Z,95453.28
2022-09-18T17:31:41.386Z,95468.09
2022-09-18T17:34:28.971Z,95464.06
2022-09-18T17:37:14.712Z,95476.84
2022-09-18T17:40:01.548Z,95474.78
2022-09-18T17:42:47.394Z,95473.03
2022-09-18T17:45:33.351Z,95488.53
2022-09-18T17:48:19.334Z,95500.84
2022-09-18T17:51:11.960Z,95505.88
2022-09-18T17:53:59.761Z,95495.09
2022-09-18T17:56:45.567Z,95512.97
2022-09-18T17:59:31.339Z,95515.53
2022-09-18T18:02:17.341Z,95513.03
2022-09-18T18:05:03.682Z,95520.81
2022-09-18T18:07:49.829Z,95521.03
2022-09-18T18:10:36.619Z,95524.81
2022-09-18T18:13:23.475Z,95539.50
2022-09-18T18:16:14.938Z,95547.59
2022-09-18T18:19:04.048Z,95537.28
2022-09-18T18:21:50.230Z,95550.81
2022-09-18T18:24:36.455Z,95547.53
2022-09-18T18:27:22.972Z,95549.00
2022-09-18T18:30:09.458Z,95543.31
2022-09-18T18:32:56.223Z,95549.94
2022-09-18T18:35:42.001Z,95550.06
2022-09-18T18:38:28.727Z,95553.94
2022-09-18T18:41:15.758Z,95554.47
2022-09-18T18:44:05.604Z,95557.56
2022-09-18T18:46:51.763Z,95556.66
2022-09-18T18:49:38.251Z,95567.56
2022-09-18T18:52:24.834Z,95566.31
2022-09-18T18:55:11.084Z,95563.81
2022-09-18T18:57:57.185Z,95572.78
2022-09-18T19:00:44.027Z,95578.94
2022-09-18T19:03:29.777Z,95571.00
2022-09-18T19:06:15.620Z,95585.09
2022-09-18T19:09:16.970Z,95590.06
2022-09-18T19:12:05.355Z,95593.94
2022-09-18T19:14:51.165Z,95589.63
2022-09-18T19:17:36.834Z,95580.88
2022-09-18T19:20:22.589Z,95580.97
2022-09-18T19:23:13.184Z,95582.34
2022-09-18T19:26:00.198Z,95573.72
2022-09-18T19:28:52.237Z,95581.44
2022-09-18T19:31:39.730Z,95592.81
2022-09-18T19:34:26.098Z,95584.50
2022-09-18T19:37:14.144Z,95584.41
2022-09-18T19:40:02.919Z,95578.28
2022-09-18T19:42:55.611Z,95585.75
2022-09-18T19:45:45.624Z,95589.16
2022-09-18T19:48:34.438Z,95594.16
2022-09-18T19:51:21.728Z,95596.63
2022-09-18T19:54:07.700Z,95600.16
2022-09-18T19:56:53.806Z,95605.50
2022-09-18T19:59:39.952Z,95601.38
2022-09-18T20:02:26.749Z,95605.94
2022-09-18T20:05:12.892Z,95594.78
2022-09-18T20:08:01.491Z,95610.66
2022-09-18T20:10:47.591Z,95605.91
2022-09-18T20:13:33.414Z,95596.34
2022-09-18T20:16:19.935Z,95602.91
2022-09-18T20:19:06.646Z,95602.03
2022-09-18T20:21:53.294Z,95602.03
2022-09-18T20:24:41.423Z,95605.56
2022-09-18T20:27:27.160Z,95607.88
2022-09-18T20:30:13.751Z,95613.97
2022-09-18T20:33:02.143Z,95602.38
2022-09-18T20:35:54.769Z,95611.84
2022-09-18T20:38:42.285Z,95608.00
2022-09-18T20:41:29.711Z,95612.41
2022-09-18T20:44:15.672Z,95618.19
2022-09-18T20:47:05.274Z,95609.88
2022-09-18T20:49:53.047Z,95611.81
2022-09-18T20:52:43.182Z,95602.91
2022-09-18T20:55:29.081Z,95597.94
2022-09-18T20:58:16.459Z,95603.38
2022-09-18T21:01:14.136Z,95599.88
2022-09-18T21:04:01.600Z,95600.84
2022-09-18T21:06:58.115Z,95609.63
2022-09-18T21:09:44.282Z,95602.91
2022-09-18T21:12:38.275Z,95604.03
2022-09-18T21:15:25.066Z,95604.84
2022-09-18T21:18:12.316Z,95608.34
2022-09-18T21:21:03.544Z,95599.94
2022-09-18T21:24:02.351Z,95603.94
2022-09-18T21:26:49.887Z,95606.28
2022-09-18T21:29:35.841Z,95602.84
2022-09-18T21:32:22.082Z,95606.03
2022-09-18T21:35:08.352Z,95614.22
2022-09-18T21:37:55.223Z,95603.06
2022-09-18T21:40:40.877Z,95599.88
2022-09-18T21:43:26.572Z,95605.78
2022-09-18T21:46:14.007Z,95606.44
2022-09-18T21:48:59.742Z,95610.28
2022-09-18T21:51:49.094Z,95616.38
2022-09-18T21:54:35.572Z,95620.22
2022-09-18T21:57:21.809Z,95611.63
2022-09-18T22:00:09.546Z,95618.19
2022-09-18T22:02:59.421Z,95623.16
2022-09-18T22:05:46.842Z,95617.72
2022-09-18T22:08:32.801Z,95618.38
2022-09-18T22:11:19.839Z,95620.63
2022-09-18T22:14:09.049Z,95608.03
2022-09-18T22:16:56.540Z,95601.97
2022-09-18T22:19:42.608Z,95604.56
2022-09-18T22:22:28.727Z,95607.63
2022-09-18T22:25:16.077Z,95611.47
2022-09-18T22:28:02.405Z,95606.34
2022-09-18T22:30:48.956Z,95607.78
2022-09-18T22:33:34.705Z,95600.75
2022-09-18T22:36:20.904Z,95598.53
2022-09-18T22:39:06.908Z,95603.69
2022-09-18T22:41:53.401Z,95608.63
2022-09-18T22:44:39.618Z,95603.84
2022-09-18T22:47:25.999Z,95591.75
2022-09-18T22:50:12.884Z,95593.81
2022-09-18T22:52:59.057Z,95597.06
2022-09-18T22:55:45.375Z,95572.16
2022-09-18T22:58:31.591Z,95582.69
2022-09-18T23:01:21.864Z,95578.25
2022-09-18T23:04:08.248Z,95596.59
2022-09-18T23:06:54.055Z,95592.50
2022-09-18T23:09:43.170Z,95576.03
2022-09-18T23:12:29.398Z,95599.84
2022-09-18T23:15:15.612Z,95593.81
2022-09-18T23:18:04.617Z,95589.81
2022-09-18T23:20:50.749Z,95598.28
2022-09-18T23:23:39.011Z,95604.53
2022-09-18T23:26:27.789Z,95604.38
2022-09-18T23:29:20.956Z,95611.13
2022-09-18T23:32:07.262Z,95592.94
2022-09-18T23:34:54.467Z,95607.44
2022-09-18T23:37:40.205Z,95601.53
2022-09-18T23:40:26.064Z,95602.84
2022-09-18T23:43:12.183Z,95605.25
2022-09-18T23:45:57.958Z,95605.25
2022-09-18T23:48:44.313Z,95601.25
2022-09-18T23:51:32.426Z,95600.78
2022-09-18T23:54:21.646Z,95587.69
2022-09-18T23:57:07.313Z,95586.09
2022-09-18T23:59:53.362Z,95579.41
